createdAt,value
2022-11-26T00:01:20.909Z,13.69
2022-11-26T00:03:49.056Z,13.65
2022-11-26T00:06:30.186Z,13.58
2022-11-26T00:08:56.594Z,13.56
2022-11-26T00:11:22.912Z,13.51
2022-11-26T00:13:49.625Z,13.46
2022-11-26T00:16:16.593Z,13.40
2022-11-26T00:18:43.473Z,13.34
2022-11-26T00:21:22.224Z,13.26
2022-11-26T00:23:49.300Z,13.24
2022-11-26T00:26:21.791Z,13.18
2022-11-26T00:28:54.390Z,13.15
2022-11-26T00:31:21.472Z,13.13
2022-11-26T00:33:48.139Z,13.11
2022-11-26T00:36:32.153Z,13.08
2022-11-26T00:39:21.500Z,13.06
2022-11-26T00:41:51.048Z,13.07
2022-11-26T00:44:20.400Z,13.05
2022-11-26T00:46:47.615Z,13.05
2022-11-26T00:49:14.525Z,13.02
2022-11-26T00:51:41.307Z,13.02
2022-11-26T00:54:12.215Z,13.02
2022-11-26T00:56:40.605Z,13.02
2022-11-26T00:59:07.133Z,13.03
2022-11-26T01:01:33.578Z,13.03
2022-11-26T01:03:59.955Z,13.04
2022-11-26T01:06:32.308Z,13.02
2022-11-26T01:08:58.988Z,13.05
2022-11-26T01:11:26.058Z,13.05
2022-11-26T01:13:54.876Z,13.04
2022-11-26T01:16:27.909Z,13.05
2022-11-26T01:18:56.447Z,13.04
2022-11-26T01:21:25.911Z,13.04
2022-11-26T01:23:52.665Z,13.03
2022-11-26T01:26:21.661Z,13.02
2022-11-26T01:28:48.275Z,13.01
2022-11-26T01:31:17.110Z,13.00
2022-11-26T01:33:44.706Z,12.99
2022-11-26T01:36:19.965Z,12.97
2022-11-26T01:38:46.457Z,12.95
2022-11-26T01:41:19.479Z,12.92
2022-11-26T01:43:47.773Z,12.90
2022-11-26T01:46:19.607Z,12.85
2022-11-26T01:48:48.597Z,12.83
2022-11-26T01:51:22.290Z,12.79
2022-11-26T01:53:54.938Z,12.74
2022-11-26T01:56:50.093Z,12.68
2022-11-26T01:59:34.485Z,12.65
2022-11-26T02:02:01.113Z,12.68
2022-11-26T02:04:33.073Z,12.69
2022-11-26T02:06:59.575Z,12.73
2022-11-26T02:09:28.120Z,12.75
2022-11-26T02:11:54.859Z,12.80
2022-11-26T02:14:28.845Z,12.86
2022-11-26T02:17:04.957Z,12.89
2022-11-26T02:20:02.268Z,12.88
2022-11-26T02:22:49.998Z,12.90
2022-11-26T02:25:35.210Z,12.95
2022-11-26T02:28:07.449Z,12.97
2022-11-26T02:30:39.907Z,13.00
2022-11-26T02:33:16.368Z,13.02
2022-11-26T02:35:49.588Z,13.05
2022-11-26T02:38:20.905Z,13.07
2022-11-26T02:40:47.598Z,13.09
2022-11-26T02:43:15.946Z,13.07
2022-11-26T02:45:48.523Z,13.05
2022-11-26T02:48:21.867Z,13.04
2022-11-26T02:50:53.065Z,13.00
2022-11-26T02:53:22.570Z,12.97
2022-11-26T02:55:53.346Z,12.94
2022-11-26T02:58:20.589Z,12.89
2022-11-26T03:00:48.639Z,12.84
2022-11-26T03:03:26.100Z,12.76
2022-11-26T03:05:55.914Z,12.74
2022-11-26T03:08:22.784Z,12.69
2022-11-26T03:10:49.320Z,12.64
2022-11-26T03:13:15.799Z,12.59
2022-11-26T03:15:42.186Z,12.53
2022-11-26T03:18:08.752Z,12.47
2022-11-26T03:20:35.252Z,12.43
2022-11-26T03:23:01.853Z,12.38
2022-11-26T03:25:28.345Z,12.33
2022-11-26T03:27:57.938Z,12.28
2022-11-26T03:30:24.257Z,12.24
2022-11-26T03:32:50.779Z,12.20
2022-11-26T03:35:17.314Z,12.14
2022-11-26T03:37:44.481Z,12.10
2022-11-26T03:40:11.252Z,12.06
2022-11-26T03:42:37.828Z,12.02
2022-11-26T03:45:04.784Z,11.97
2022-11-26T03:47:31.302Z,11.93
2022-11-26T03:49:57.690Z,11.88
2022-11-26T03:52:23.999Z,11.85
2022-11-26T03:54:50.577Z,11.81
2022-11-26T03:57:17.316Z,11.78
2022-11-26T03:59:43.677Z,11.76
2022-11-26T04:02:10.022Z,11.73
2022-11-26T04:04:37.092Z,11.70
2022-11-26T04:07:06.026Z,11.67
2022-11-26T04:09:36.331Z,11.63
2022-11-26T04:12:02.721Z,11.62
2022-11-26T04:14:29.085Z,11.58
2022-11-26T04:16:55.551Z,11.55
2022-11-26T04:19:22.040Z,11.53
2022-11-26T04:21:48.586Z,11.52
2022-11-26T04:24:15.113Z,11.50
2022-11-26T04:26:41.472Z,11.48
2022-11-26T04:29:07.914Z,11.46
2022-11-26T04:31:34.319Z,11.44
2022-11-26T04:34:00.684Z,11.42
2022-11-26T04:36:27.364Z,11.39
2022-11-26T04:38:53.703Z,11.38
2022-11-26T04:41:20.079Z,11.37
2022-11-26T04:43:46.655Z,11.37
2022-11-26T04:46:13.207Z,11.37
2022-11-26T04:48:39.621Z,11.36
2022-11-26T04:51:06.207Z,11.38
2022-11-26T04:53:32.612Z,11.38
2022-11-26T04:55:59.060Z,11.38
2022-11-26T04:58:25.501Z,11.38
2022-11-26T05:00:52.010Z,11.36
2022-11-26T05:03:19.070Z,11.36
2022-11-26T05:05:46.746Z,11.33
2022-11-26T05:08:13.177Z,11.33
2022-11-26T05:10:39.498Z,11.31
2022-11-26T05:13:06.060Z,11.30
2022-11-26T05:15:32.417Z,11.26
2022-11-26T05:17:58.925Z,11.23
2022-11-26T05:20:25.553Z,11.21
2022-11-26T05:22:52.095Z,11.17
2022-11-26T05:25:19.032Z,11.15
2022-11-26T05:27:45.404Z,11.13
2022-11-26T05:30:12.374Z,11.10
2022-11-26T05:32:40.983Z,11.09
2022-11-26T05:35:07.810Z,11.10
2022-11-26T05:37:34.381Z,11.10
2022-11-26T05:40:00.925Z,11.10
2022-11-26T05:42:27.303Z,11.12
2022-11-26T05:44:53.695Z,11.11
2022-11-26T05:47:20.223Z,11.11
2022-11-26T05:49:46.757Z,11.12
2022-11-26T05:52:13.271Z,11.12
2022-11-26T05:54:40.183Z,11.14
2022-11-26T05:57:06.741Z,11.15
2022-11-26T05:59:34.133Z,11.17
2022-11-26T06:02:00.628Z,11.18
2022-11-26T06:04:27.290Z,11.20
2022-11-26T06:06:53.640Z,11.20
2022-11-26T06:09:21.292Z,11.21
2022-11-26T06:11:50.782Z,11.23
2022-11-26T06:14:17.924Z,11.21
2022-11-26T06:16:44.360Z,11.19
2022-11-26T06:19:11.850Z,11.18
2022-11-26T06:21:38.799Z,11.16
2022-11-26T06:24:05.898Z,11.12
2022-11-26T06:26:32.429Z,11.09
2022-11-26T06:28:58.891Z,11.05
2022-11-26T06:31:25.518Z,11.03
2022-11-26T06:33:56.136Z,11.00
2022-11-26T06:36:23.717Z,11.00
2022-11-26T06:38:50.395Z,11.00
2022-11-26T06:41:19.614Z,10.99
2022-11-26T06:43:45.998Z,10.99
2022-11-26T06:46:12.466Z,10.99
2022-11-26T06:48:39.605Z,11.01
2022-11-26T06:51:06.212Z,11.02
2022-11-26T06:53:33.021Z,11.02
2022-11-26T06:56:01.118Z,11.04
2022-11-26T06:58:27.839Z,11.03
2022-11-26T07:00:54.524Z,11.02
2022-11-26T07:03:24.857Z,11.01
2022-11-26T07:05:52.811Z,11.00
2022-11-26T07:08:19.166Z,10.98
2022-11-26T07:10:48.966Z,10.96
2022-11-26T07:13:16.030Z,10.95
2022-11-26T07:15:42.602Z,10.94
2022-11-26T07:18:09.219Z,10.92
2022-11-26T07:20:36.554Z,10.92
2022-11-26T07:23:05.196Z,10.90
2022-11-26T07:25:31.751Z,10.91
2022-11-26T07:27:58.396Z,10.89
2022-11-26T07:30:24.877Z,10.88
2022-11-26T07:32:51.169Z,10.88
2022-11-26T07:35:17.611Z,10.88
2022-11-26T07:37:44.692Z,10.87
2022-11-26T07:40:11.402Z,10.87
2022-11-26T07:42:37.743Z,10.88
2022-11-26T07:45:04.553Z,10.87
2022-11-26T07:47:36.427Z,10.89
2022-11-26T07:50:03.433Z,10.89
2022-11-26T07:52:29.976Z,10.91
2022-11-26T07:54:56.466Z,10.91
2022-11-26T07:57:25.425Z,10.93
2022-11-26T07:59:51.936Z,10.93
2022-11-26T08:02:19.295Z,10.95
2022-11-26T08:04:45.736Z,10.97
2022-11-26T08:07:16.212Z,10.97
2022-11-26T08:09:48.380Z,10.99
2022-11-26T08:12:14.680Z,11.02
2022-11-26T08:14:41.185Z,11.05
2022-11-26T08:17:07.774Z,11.09
2022-11-26T08:19:35.465Z,11.13
2022-11-26T08:22:01.865Z,11.20
2022-11-26T08:24:28.295Z,11.27
2022-11-26T08:26:54.799Z,11.37
2022-11-26T08:29:21.141Z,11.47
2022-11-26T08:31:47.920Z,11.58
2022-11-26T08:34:15.838Z,11.68
2022-11-26T08:36:42.384Z,11.79
2022-11-26T08:39:12.531Z,11.91
2022-11-26T08:41:38.886Z,12.01
2022-11-26T08:44:06.942Z,12.11
2022-11-26T08:46:34.667Z,12.23
2022-11-26T08:49:01.034Z,12.34
2022-11-26T08:51:27.427Z,12.44
2022-11-26T08:53:53.783Z,12.55
2022-11-26T08:56:20.100Z,12.64
2022-11-26T08:58:49.359Z,12.74
2022-11-26T09:01:21.415Z,12.84
2022-11-26T09:03:49.909Z,12.93
2022-11-26T09:06:16.973Z,13.03
2022-11-26T09:09:18.811Z,13.12
2022-11-26T09:11:54.151Z,13.22
2022-11-26T09:14:27.207Z,13.31
2022-11-26T09:16:54.890Z,13.38
2022-11-26T09:19:22.171Z,13.47
2022-11-26T09:21:48.578Z,13.55
2022-11-26T09:24:16.750Z,13.61
2022-11-26T09:26:43.583Z,13.69
2022-11-26T09:29:15.080Z,13.75
2022-11-26T09:32:00.819Z,13.85
2022-11-26T09:34:28.370Z,13.93
2022-11-26T09:36:54.760Z,14.00
2022-11-26T09:39:21.049Z,14.06
2022-11-26T09:42:06.333Z,14.09
2022-11-26T09:44:32.624Z,14.18
2022-11-26T09:47:22.694Z,14.19
2022-11-26T09:50:06.123Z,14.24
2022-11-26T09:52:45.149Z,14.31
2022-11-26T09:55:18.139Z,14.38
2022-11-26T09:58:27.889Z,14.44
2022-11-26T10:00:56.975Z,14.53
2022-11-26T10:03:31.991Z,14.56
2022-11-26T10:06:10.268Z,14.59
2022-11-26T10:09:18.957Z,14.63
2022-11-26T10:12:24.687Z,14.68
2022-11-26T10:15:17.355Z,14.74
2022-11-26T10:18:20.051Z,14.79
2022-11-26T10:21:01.034Z,14.86
2022-11-26T10:23:34.198Z,14.94
2022-11-26T10:26:15.196Z,14.99
2022-11-26T10:28:46.956Z,15.07
2022-11-26T10:31:33.272Z,15.15
2022-11-26T10:34:09.428Z,15.23
2022-11-26T10:36:41.483Z,15.29
2022-11-26T10:39:15.775Z,15.32
2022-11-26T10:41:42.750Z,15.39
2022-11-26T10:44:40.778Z,15.40
2022-11-26T10:47:19.744Z,15.49
2022-11-26T10:49:46.187Z,15.56
2022-11-26T10:52:19.460Z,15.57
2022-11-26T10:54:46.172Z,15.60
2022-11-26T10:57:17.990Z,15.60
2022-11-26T10:59:44.322Z,15.63
2022-11-26T11:02:19.843Z,15.63
2022-11-26T11:04:50.877Z,15.66
2022-11-26T11:07:41.117Z,15.68
2022-11-26T11:10:11.122Z,15.73
2022-11-26T11:12:41.715Z,15.77
2022-11-26T11:15:29.545Z,15.79
2022-11-26T11:18:14.010Z,15.83
2022-11-26T11:20:43.200Z,15.88
2022-11-26T11:23:09.773Z,15.92
2022-11-26T11:25:39.891Z,15.94
2022-11-26T11:28:17.888Z,15.98
2022-11-26T11:30:46.246Z,16.01
2022-11-26T11:33:21.956Z,16.04
2022-11-26T11:36:16.304Z,16.08
2022-11-26T11:38:55.756Z,16.14
2022-11-26T11:41:27.384Z,16.16
2022-11-26T11:44:06.186Z,16.18
2022-11-26T11:46:46.197Z,16.20
2022-11-26T11:49:27.280Z,16.24
2022-11-26T11:52:15.384Z,16.26
2022-11-26T11:55:14.475Z,16.29
2022-11-26T11:57:49.822Z,16.32
2022-11-26T12:00:27.025Z,16.33
2022-11-26T12:03:30.503Z,16.36
2022-11-26T12:06:41.785Z,16.39
2022-11-26T12:09:36.515Z,16.45
2022-11-26T12:12:24.925Z,16.48
2022-11-26T12:14:59.441Z,16.56
2022-11-26T12:18:00.739Z,16.60
2022-11-26T12:20:39.850Z,16.64
2022-11-26T12:23:18.792Z,16.66
2022-11-26T12:25:53.292Z,16.69
2022-11-26T12:28:51.313Z,16.67
2022-11-26T12:31:31.189Z,16.69
2022-11-26T12:34:12.959Z,16.68
2022-11-26T12:36:43.562Z,16.73
2022-11-26T12:39:20.100Z,16.69
2022-11-26T12:41:53.965Z,16.70
2022-11-26T12:44:46.547Z,16.67
2022-11-26T12:47:37.884Z,16.70
2022-11-26T12:50:17.532Z,16.73
2022-11-26T12:53:12.933Z,16.73
2022-11-26T12:55:48.930Z,16.76
2022-11-26T12:58:44.832Z,16.78
2022-11-26T13:01:11.732Z,16.83
2022-11-26T13:03:38.645Z,16.85
2022-11-26T13:06:17.232Z,16.88
2022-11-26T13:09:05.471Z,16.90
2022-11-26T13:12:09.707Z,16.92
2022-11-26T13:15:06.844Z,16.96
2022-11-26T13:17:45.015Z,16.99
2022-11-26T13:20:43.246Z,17.00
2022-11-26T13:23:27.423Z,17.04
2022-11-26T13:26:31.240Z,17.03
2022-11-26T13:29:22.240Z,17.04
2022-11-26T13:32:14.675Z,17.04
2022-11-26T13:35:00.891Z,17.03
2022-11-26T13:37:56.654Z,17.03
2022-11-26T13:40:44.179Z,17.02
2022-11-26T13:43:34.526Z,17.04
2022-11-26T13:46:09.200Z,17.02
2022-11-26T13:48:53.646Z,16.98
2022-11-26T13:51:46.351Z,16.96
2022-11-26T13:54:23.145Z,16.98
2022-11-26T13:56:55.646Z,16.97
2022-11-26T13:59:28.361Z,16.97
2022-11-26T14:01:55.786Z,16.94
2022-11-26T14:04:23.488Z,16.93
2022-11-26T14:07:05.188Z,16.87
2022-11-26T14:09:47.382Z,16.87
2022-11-26T14:12:15.940Z,16.87
2022-11-26T14:14:43.137Z,16.87
2022-11-26T14:17:22.879Z,16.85
2022-11-26T14:19:49.182Z,16.84
2022-11-26T14:22:21.541Z,16.79
2022-11-26T14:24:48.475Z,16.78
2022-11-26T14:27:15.412Z,16.75
2022-11-26T14:29:44.091Z,16.72
2022-11-26T14:32:19.139Z,16.66
2022-11-26T14:34:55.708Z,16.64
2022-11-26T14:37:25.911Z,16.61
2022-11-26T14:40:19.033Z,16.55
2022-11-26T14:42:45.388Z,16.55
2022-11-26T14:45:21.253Z,16.49
2022-11-26T14:47:51.264Z,16.46
2022-11-26T14:50:21.701Z,16.43
2022-11-26T14:52:57.565Z,16.39
2022-11-26T14:55:30.115Z,16.36
2022-11-26T14:58:06.165Z,16.35
2022-11-26T15:00:36.500Z,16.32
2022-11-26T15:03:04.200Z,16.30
2022-11-26T15:05:33.230Z,16.26
2022-11-26T15:08:05.097Z,16.23
2022-11-26T15:10:58.583Z,16.17
2022-11-26T15:13:36.919Z,16.16
2022-11-26T15:16:28.215Z,16.13
2022-11-26T15:18:55.482Z,16.14
2022-11-26T15:21:24.235Z,16.10
2022-11-26T15:23:53.751Z,16.05
2022-11-26T15:26:25.464Z,16.02
2022-11-26T15:28:52.009Z,16.00
2022-11-26T15:31:21.374Z,15.98
2022-11-26T15:33:48.664Z,15.95
2022-11-26T15:36:17.840Z,15.93
2022-11-26T15:39:08.974Z,15.87
2022-11-26T15:41:42.505Z,15.86
2022-11-26T15:44:28.646Z,15.82
2022-11-26T15:46:57.228Z,15.83
2022-11-26T15:49:38.966Z,15.77
2022-11-26T15:52:13.181Z,15.76
2022-11-26T15:55:10.994Z,15.76
2022-11-26T15:57:33.672Z,15.74
2022-11-26T16:00:04.467Z,15.72
2022-11-26T16:02:32.147Z,15.70
2022-11-26T16:05:00.660Z,15.66
2022-11-26T16:07:32.728Z,15.63
2022-11-26T16:10:24.739Z,15.59
2022-11-26T16:13:16.743Z,15.57
2022-11-26T16:16:05.409Z,15.54
2022-11-26T16:18:48.107Z,15.50
2022-11-26T16:21:19.653Z,15.49
2022-11-26T16:24:06.049Z,15.44
2022-11-26T16:27:02.771Z,15.40
2022-11-26T16:29:30.232Z,15.40
2022-11-26T16:31:56.826Z,15.37
2022-11-26T16:34:25.951Z,15.33
2022-11-26T16:37:01.064Z,15.29
2022-11-26T16:39:30.146Z,15.29
2022-11-26T16:41:56.966Z,15.27
2022-11-26T16:44:23.384Z,15.26
2022-11-26T16:46:51.899Z,15.24
2022-11-26T16:49:18.417Z,15.24
2022-11-26T16:51:44.904Z,15.20
2022-11-26T16:54:15.584Z,15.19
2022-11-26T16:56:41.943Z,15.17
2022-11-26T16:59:21.537Z,15.13
2022-11-26T17:01:48.150Z,15.14
2022-11-26T17:04:14.677Z,15.11
2022-11-26T17:06:41.772Z,15.09
2022-11-26T17:09:20.588Z,15.05
2022-11-26T17:11:46.937Z,15.06
2022-11-26T17:14:13.386Z,15.08
2022-11-26T17:16:40.681Z,15.04
2022-11-26T17:19:12.415Z,14.99
2022-11-26T17:21:38.860Z,14.98
2022-11-26T17:24:05.417Z,14.94
2022-11-26T17:26:31.829Z,14.91
2022-11-26T17:28:58.183Z,14.88
2022-11-26T17:31:24.824Z,14.84
2022-11-26T17:33:51.550Z,14.81
2022-11-26T17:36:20.845Z,14.76
2022-11-26T17:38:47.998Z,14.73
2022-11-26T17:41:15.648Z,14.70
2022-11-26T17:43:42.609Z,14.67
2022-11-26T17:46:18.107Z,14.61
2022-11-26T17:48:44.865Z,14.58
2022-11-26T17:51:14.290Z,14.52
2022-11-26T17:53:41.694Z,14.49
2022-11-26T17:56:19.699Z,14.44
2022-11-26T17:58:47.175Z,14.43
2022-11-26T18:01:15.653Z,14.40
2022-11-26T18:03:42.900Z,14.39
2022-11-26T18:06:15.907Z,14.38
2022-11-26T18:08:42.333Z,14.36
2022-11-26T18:11:08.709Z,14.31
2022-11-26T18:13:35.075Z,14.28
2022-11-26T18:16:01.698Z,14.26
2022-11-26T18:18:28.355Z,14.22
2022-11-26T18:20:55.135Z,14.19
2022-11-26T18:23:22.869Z,14.15
2022-11-26T18:25:49.208Z,14.12
2022-11-26T18:28:19.422Z,14.07
2022-11-26T18:30:46.286Z,14.04
2022-11-26T18:33:14.030Z,13.98
2022-11-26T18:35:42.049Z,13.92
2022-11-26T18:38:11.300Z,13.87
2022-11-26T18:40:37.922Z,13.83
2022-11-26T18:43:04.869Z,13.77
2022-11-26T18:45:32.615Z,13.72
2022-11-26T18:48:00.419Z,13.69
2022-11-26T18:50:27.096Z,13.66
2022-11-26T18:52:55.875Z,13.61
2022-11-26T18:55:23.656Z,13.56
2022-11-26T18:57:51.097Z,13.54
2022-11-26T19:00:19.694Z,13.49
2022-11-26T19:02:46.166Z,13.46
2022-11-26T19:05:12.710Z,13.45
2022-11-26T19:07:39.536Z,13.40
2022-11-26T19:10:06.773Z,13.36
2022-11-26T19:12:33.275Z,13.33
2022-11-26T19:14:59.621Z,13.29
2022-11-26T19:17:26.274Z,13.25
2022-11-26T19:19:52.655Z,13.22
2022-11-26T19:22:19.021Z,13.19
2022-11-26T19:24:45.393Z,13.15
2022-11-26T19:27:13.202Z,13.11
2022-11-26T19:29:39.841Z,13.10
2022-11-26T19:32:06.596Z,13.07
2022-11-26T19:34:32.881Z,13.04
2022-11-26T19:36:59.321Z,13.01
2022-11-26T19:39:25.675Z,12.99
2022-11-26T19:41:52.086Z,12.97
2022-11-26T19:44:18.627Z,12.96
2022-11-26T19:46:47.698Z,12.93
2022-11-26T19:49:14.490Z,12.92
2022-11-26T19:51:40.915Z,12.89
2022-11-26T19:54:07.567Z,12.86
2022-11-26T19:56:35.153Z,12.85
2022-11-26T19:59:02.182Z,12.84
2022-11-26T20:01:31.561Z,12.81
2022-11-26T20:04:04.722Z,12.78
2022-11-26T20:06:33.266Z,12.77
2022-11-26T20:08:59.779Z,12.77
2022-11-26T20:11:27.744Z,12.78
2022-11-26T20:13:54.763Z,12.74
2022-11-26T20:16:27.612Z,12.71
2022-11-26T20:18:54.808Z,12.69
2022-11-26T20:21:27.056Z,12.65
2022-11-26T20:23:55.063Z,12.63
2022-11-26T20:26:25.462Z,12.62
2022-11-26T20:28:53.139Z,12.61
2022-11-26T20:31:23.550Z,12.58
2022-11-26T20:33:52.465Z,12.55
2022-11-26T20:36:21.199Z,12.56
2022-11-26T20:38:54.412Z,12.55
2022-11-26T20:41:22.011Z,12.52
2022-11-26T20:43:52.367Z,12.52
2022-11-26T20:46:22.262Z,12.50
2022-11-26T20:48:49.129Z,12.48
2022-11-26T20:51:17.735Z,12.46
2022-11-26T20:53:51.651Z,12.46
2022-11-26T20:56:20.726Z,12.47
2022-11-26T20:58:47.583Z,12.46
2022-11-26T21:01:25.936Z,12.40
2022-11-26T21:03:52.549Z,12.41
2022-11-26T21:06:25.869Z,12.42
2022-11-26T21:08:57.426Z,12.40
2022-11-26T21:11:23.857Z,12.39
2022-11-26T21:13:50.381Z,12.37
2022-11-26T21:16:16.933Z,12.36
2022-11-26T21:18:43.991Z,12.37
2022-11-26T21:21:17.377Z,12.36
2022-11-26T21:23:44.971Z,12.38
2022-11-26T21:26:15.992Z,12.40
2022-11-26T21:28:42.545Z,12.41
2022-11-26T21:31:16.986Z,12.41
2022-11-26T21:33:44.875Z,12.45
2022-11-26T21:36:16.508Z,12.48
2022-11-26T21:38:48.299Z,12.49
2022-11-26T21:41:16.069Z,12.54
2022-11-26T21:43:44.035Z,12.55
2022-11-26T21:46:14.717Z,12.58
2022-11-26T21:48:41.327Z,12.60
2022-11-26T21:51:10.579Z,12.61
2022-11-26T21:53:37.011Z,12.65
2022-11-26T21:56:14.853Z,12.65
2022-11-26T21:58:42.021Z,12.68
2022-11-26T22:01:18.592Z,12.68
2022-11-26T22:03:48.277Z,12.72
2022-11-26T22:06:16.228Z,12.74
2022-11-26T22:08:43.100Z,12.75
2022-11-26T22:11:21.568Z,12.77
2022-11-26T22:13:49.511Z,12.79
2022-11-26T22:16:18.130Z,12.83
2022-11-26T22:18:45.989Z,12.83
2022-11-26T22:21:18.490Z,12.81
2022-11-26T22:23:45.899Z,12.83
2022-11-26T22:26:14.846Z,12.81
2022-11-26T22:28:41.342Z,12.83
2022-11-26T22:31:29.230Z,12.81
2022-11-26T22:34:05.010Z,12.84
2022-11-26T22:36:32.080Z,12.86
2022-11-26T22:38:59.364Z,12.85
2022-11-26T22:41:26.554Z,12.85
2022-11-26T22:43:53.136Z,12.86
2022-11-26T22:46:21.986Z,12.84
2022-11-26T22:48:58.122Z,12.82
2022-11-26T22:51:26.641Z,12.83
2022-11-26T22:53:54.181Z,12.83
2022-11-26T22:56:21.615Z,12.83
2022-11-26T22:58:48.691Z,12.80
2022-11-26T23:01:21.184Z,12.73
2022-11-26T23:03:48.462Z,12.71
2022-11-26T23:06:17.258Z,12.66
2022-11-26T23:08:44.986Z,12.63
2022-11-26T23:11:16.567Z,12.55
2022-11-26T23:13:44.959Z,12.51
2022-11-26T23:16:12.386Z,12.47
2022-11-26T23:18:39.065Z,12.44
2022-11-26T23:21:09.121Z,12.38
2022-11-26T23:23:37.154Z,12.34
2022-11-26T23:26:05.580Z,12.31
2022-11-26T23:28:34.008Z,12.27
2022-11-26T23:31:01.942Z,12.22
2022-11-26T23:33:28.838Z,12.20
2022-11-26T23:35:56.363Z,12.15
2022-11-26T23:38:23.686Z,12.11
2022-11-26T23:40:57.895Z,12.03
2022-11-26T23:43:25.302Z,11.99
2022-11-26T23:46:06.755Z,11.91
2022-11-26T23:48:33.741Z,11.88
2022-11-26T23:51:00.901Z,11.81
2022-11-26T23:53:27.721Z,11.76
2022-11-26T23:55:54.165Z,11.69
2022-11-26T23:58:20.452Z,11.66
